createdAt,value
2022-12-04T00:54:15.362Z,9.46
2022-12-04T01:00:42.093Z,9.19
2022-12-04T01:03:28.321Z,9.28
2022-12-04T01:06:33.709Z,9.31
2022-12-04T01:09:06.370Z,9.31
2022-12-04T01:11:37.013Z,9.31
2022-12-04T01:14:42.353Z,9.30
2022-12-04T01:24:52.617Z,9.01
2022-12-04T01:31:14.085Z,9.08
2022-12-04T01:34:17.624Z,9.07
2022-12-04T01:45:00.815Z,8.97
2022-12-04T01:51:20.403Z,8.84
2022-12-04T02:06:32.846Z,8.68
2022-12-04T02:09:26.375Z,8.75
2022-12-04T02:46:30.723Z,8.60
2022-12-04T02:49:19.215Z,8.55
2022-12-04T02:51:47.507Z,8.44
2022-12-04T02:54:24.185Z,8.52
2022-12-04T02:57:40.934Z,8.50
2022-12-04T03:00:24.064Z,8.44
2022-12-04T03:03:09.557Z,8.38
2022-12-04T03:05:46.347Z,8.34
2022-12-04T03:11:59.289Z,8.43
2022-12-04T03:14:29.708Z,8.40
2022-12-04T03:17:37.809Z,8.38
2022-12-04T03:20:12.879Z,8.20
2022-12-04T03:26:48.685Z,8.21
2022-12-04T03:29:48.335Z,8.17
2022-12-04T03:32:45.434Z,8.15
2022-12-04T03:35:34.343Z,8.14
2022-12-04T03:42:07.152Z,8.10
2022-12-04T03:45:02.375Z,8.08
2022-12-04T03:47:39.481Z,8.02
2022-12-04T03:50:36.664Z,8.06
2022-12-04T03:53:45.170Z,8.06
2022-12-04T03:56:33.802Z,8.03
2022-12-04T04:00:03.215Z,7.99
2022-12-04T04:02:32.262Z,7.98
2022-12-04T04:04:59.995Z,7.96
2022-12-04T04:08:22.058Z,8.00
2022-12-04T04:10:50.519Z,7.94
2022-12-04T04:13:46.950Z,7.97
2022-12-04T04:16:45.363Z,7.98
2022-12-04T04:19:40.043Z,7.97
2022-12-04T04:22:34.951Z,7.96
2022-12-04T04:25:14.793Z,7.93
2022-12-04T04:28:33.280Z,7.93
2022-12-04T04:31:29.309Z,7.84
2022-12-04T04:34:10.773Z,7.84
2022-12-04T04:36:51.220Z,7.82
2022-12-04T04:39:47.524Z,7.81
2022-12-04T04:42:23.280Z,7.76
2022-12-04T04:45:15.943Z,7.73
2022-12-04T04:48:26.913Z,7.75
2022-12-04T04:51:16.196Z,7.73
2022-12-04T04:53:46.954Z,7.65
2022-12-04T04:56:23.293Z,7.71
2022-12-04T04:59:06.530Z,7.71
2022-12-04T05:01:35.037Z,7.69
2022-12-04T05:04:04.292Z,7.65
2022-12-04T05:06:44.098Z,7.62
2022-12-04T05:09:23.229Z,7.58
2022-12-04T05:12:04.911Z,7.60
2022-12-04T05:14:34.291Z,7.58
2022-12-04T05:17:16.797Z,7.57
2022-12-04T05:19:59.373Z,7.53
2022-12-04T05:22:32.263Z,7.54
2022-12-04T05:25:01.016Z,7.49
2022-12-04T05:27:29.316Z,7.49
2022-12-04T05:30:08.837Z,7.42
2022-12-04T05:33:05.075Z,7.42
2022-12-04T05:35:32.498Z,7.36
2022-12-04T05:38:01.215Z,7.27
2022-12-04T05:40:29.603Z,7.24
2022-12-04T05:43:15.886Z,7.33
2022-12-04T05:45:51.665Z,7.30
2022-12-04T05:48:36.372Z,7.35
2022-12-04T05:51:14.988Z,7.33
2022-12-04T05:53:43.526Z,7.34
2022-12-04T05:56:16.777Z,7.35
2022-12-04T05:58:59.090Z,7.31
2022-12-04T06:01:26.372Z,7.31
2022-12-04T06:03:57.838Z,7.33
2022-12-04T06:06:27.294Z,7.34
2022-12-04T06:09:05.495Z,7.34
2022-12-04T06:11:40.906Z,7.30
2022-12-04T06:17:49.315Z,7.30
2022-12-04T06:20:25.944Z,7.28
2022-12-04T06:23:25.266Z,7.29
2022-12-04T06:26:00.829Z,7.27
2022-12-04T06:28:55.145Z,7.25
2022-12-04T06:31:30.404Z,7.20
2022-12-04T06:34:10.847Z,7.15
2022-12-04T06:36:59.812Z,7.17
2022-12-04T06:39:31.216Z,7.19
2022-12-04T06:42:18.035Z,7.22
2022-12-04T06:44:51.975Z,7.19
2022-12-04T06:47:23.293Z,7.19
2022-12-04T06:49:53.807Z,7.16
2022-12-04T06:52:23.498Z,7.17
2022-12-04T06:54:50.724Z,7.14
2022-12-04T06:57:59.305Z,7.11
2022-12-04T07:00:29.789Z,7.06
2022-12-04T07:03:19.996Z,7.03
2022-12-04T07:06:22.122Z,7.02
2022-12-04T07:12:36.821Z,7.02
2022-12-04T07:19:10.127Z,7.06
2022-12-04T07:21:44.848Z,7.06
2022-12-04T07:24:17.252Z,7.04
2022-12-04T07:27:18.842Z,7.10
2022-12-04T07:30:26.709Z,7.13
2022-12-04T07:37:10.176Z,7.18
2022-12-04T07:39:37.886Z,7.14
2022-12-04T07:42:07.685Z,7.19
2022-12-04T07:44:41.158Z,7.20
2022-12-04T07:47:36.961Z,7.19
2022-12-04T07:50:21.670Z,7.18
2022-12-04T07:52:57.320Z,7.19
2022-12-04T07:55:36.711Z,7.23
2022-12-04T07:58:52.590Z,7.28
2022-12-04T08:01:23.440Z,7.34
2022-12-04T08:03:55.559Z,7.46
2022-12-04T08:06:24.056Z,7.47
2022-12-04T08:09:30.166Z,7.63
2022-12-04T08:12:13.425Z,7.73
2022-12-04T08:15:17.880Z,7.81
2022-12-04T08:18:12.243Z,7.91
2022-12-04T08:21:15.397Z,8.01
2022-12-04T08:23:48.060Z,8.10
2022-12-04T08:26:34.157Z,8.16
2022-12-04T08:29:40.390Z,8.24
2022-12-04T08:32:24.347Z,8.30
2022-12-04T08:35:05.426Z,8.41
2022-12-04T08:37:40.477Z,8.43
2022-12-04T08:40:31.061Z,8.63
2022-12-04T08:43:28.185Z,8.75
2022-12-04T08:53:31.465Z,9.29
2022-12-04T08:55:58.864Z,9.39
2022-12-04T08:58:27.630Z,9.58
2022-12-04T09:01:14.351Z,9.83
2022-12-04T09:03:59.682Z,10.02
2022-12-04T09:07:19.282Z,10.23
2022-12-04T09:10:39.413Z,10.41
2022-12-04T09:13:59.538Z,10.55
2022-12-04T09:16:29.987Z,10.66
2022-12-04T09:18:57.926Z,10.77
2022-12-04T09:21:41.777Z,10.94
2022-12-04T09:24:10.361Z,11.04
2022-12-04T09:29:23.397Z,11.16
2022-12-04T09:31:53.858Z,11.31
2022-12-04T09:34:26.426Z,11.40
2022-12-04T09:36:56.512Z,11.51
2022-12-04T09:39:23.888Z,11.58
2022-12-04T09:42:06.733Z,11.75
2022-12-04T09:45:11.493Z,11.87
2022-12-04T09:47:43.610Z,12.05
2022-12-04T09:50:41.239Z,12.29
2022-12-04T09:53:17.564Z,12.43
2022-12-04T09:56:02.065Z,12.58
2022-12-04T09:58:46.855Z,12.68
2022-12-04T10:01:21.060Z,12.74
2022-12-04T10:03:50.626Z,12.78
2022-12-04T10:06:26.947Z,12.81
2022-12-04T10:09:18.982Z,12.92
2022-12-04T10:12:13.821Z,12.96
2022-12-04T10:14:44.342Z,12.97
2022-12-04T10:17:41.041Z,12.86
2022-12-04T10:20:17.254Z,12.81
2022-12-04T10:23:19.155Z,12.81
2022-12-04T10:25:46.925Z,12.77
2022-12-04T10:28:40.278Z,12.74
2022-12-04T10:31:23.270Z,12.86
2022-12-04T10:34:18.401Z,12.91
2022-12-04T10:37:35.103Z,13.09
